createdAt,value
2022-08-22T00:01:40.458Z,100.00
2022-08-22T00:06:45.723Z,100.00
2022-08-22T00:11:52.787Z,100.00
2022-08-22T00:17:00.254Z,100.00
2022-08-22T00:22:05.498Z,100.00
2022-08-22T00:27:12.264Z,100.00
2022-08-22T00:32:17.638Z,100.00
2022-08-22T00:37:25.961Z,100.00
2022-08-22T00:42:32.385Z,100.00
2022-08-22T00:47:36.017Z,100.00
2022-08-22T00:52:41.296Z,100.00
2022-08-22T00:57:46.520Z,100.00
2022-08-22T01:03:02.701Z,100.00
2022-08-22T01:08:08.861Z,100.00
2022-08-22T01:13:13.139Z,100.00
2022-08-22T01:18:18.707Z,100.00
2022-08-22T01:23:23.970Z,100.00
2022-08-22T01:28:29.296Z,100.00
2022-08-22T01:33:48.214Z,100.00
2022-08-22T01:38:53.532Z,100.00
2022-08-22T01:44:00.748Z,100.00
2022-08-22T01:49:06.402Z,100.00
2022-08-22T01:54:12.844Z,100.00
2022-08-22T01:59:33.742Z,100.00
2022-08-22T02:04:39.953Z,100.00
2022-08-22T02:09:48.347Z,100.00
2022-08-22T02:14:50.634Z,100.00
2022-08-22T02:19:56.068Z,100.00
2022-08-22T02:25:01.317Z,100.00
2022-08-22T02:30:06.618Z,100.00
2022-08-22T02:35:11.964Z,100.00
2022-08-22T02:40:20.208Z,100.00
2022-08-22T02:45:26.449Z,100.00
2022-08-22T02:50:35.536Z,100.00
2022-08-22T02:55:42.257Z,100.00
2022-08-22T03:00:49.666Z,100.00
2022-08-22T03:06:01.116Z,100.00
2022-08-22T03:11:08.542Z,100.00
2022-08-22T03:16:15.166Z,100.00
2022-08-22T03:21:17.626Z,100.00
2022-08-22T03:26:22.896Z,100.00
2022-08-22T03:31:25.788Z,100.00
2022-08-22T03:36:29.605Z,100.00
2022-08-22T03:41:52.428Z,100.00
2022-08-22T03:47:07.280Z,100.00
2022-08-22T03:52:19.789Z,100.00
2022-08-22T03:57:41.254Z,100.00
2022-08-22T04:02:47.080Z,100.00
2022-08-22T04:07:52.473Z,100.00
2022-08-22T04:13:03.451Z,100.00
2022-08-22T04:18:17.254Z,100.00
2022-08-22T04:23:27.315Z,100.00
2022-08-22T04:28:36.314Z,100.00
2022-08-22T04:33:39.562Z,100.00
2022-08-22T04:38:44.450Z,100.00
2022-08-22T04:43:49.755Z,100.00
2022-08-22T04:48:55.777Z,100.00
2022-08-22T04:53:59.492Z,100.00
2022-08-22T04:59:07.615Z,100.00
2022-08-22T05:04:15.035Z,100.00
2022-08-22T05:09:21.555Z,100.00
2022-08-22T05:14:28.246Z,100.00
2022-08-22T05:19:33.886Z,100.00
2022-08-22T05:24:39.397Z,100.00
2022-08-22T05:29:44.784Z,100.00
2022-08-22T05:34:48.346Z,100.00
2022-08-22T05:39:57.857Z,100.00
2022-08-22T05:45:01.740Z,100.00
2022-08-22T05:50:07.155Z,100.00
2022-08-22T05:55:11.576Z,100.00
2022-08-22T06:00:17.465Z,100.00
2022-08-22T06:05:26.737Z,100.00
2022-08-22T06:10:35.985Z,100.00
2022-08-22T06:15:45.058Z,100.00
2022-08-22T06:20:50.070Z,100.00
2022-08-22T06:25:53.931Z,100.00
2022-08-22T06:30:57.465Z,100.00
2022-08-22T06:36:06.175Z,100.00
2022-08-22T06:41:08.922Z,100.00
2022-08-22T06:46:14.757Z,100.00
2022-08-22T06:51:19.277Z,100.00
2022-08-22T06:56:24.296Z,100.00
2022-08-22T07:01:31.344Z,100.00
2022-08-22T07:06:36.570Z,100.00
2022-08-22T07:11:39.946Z,100.00
2022-08-22T07:16:45.262Z,100.00
2022-08-22T07:21:48.044Z,100.00
2022-08-22T07:26:50.345Z,100.00
2022-08-22T07:32:03.418Z,99.96
2022-08-22T07:37:08.079Z,100.00
2022-08-22T07:42:14.295Z,100.00
2022-08-22T07:47:26.109Z,100.00
2022-08-22T07:52:32.357Z,99.76
2022-08-22T07:57:37.287Z,99.74
2022-08-22T08:02:44.573Z,99.83
2022-08-22T08:07:47.902Z,99.44
2022-08-22T08:12:56.117Z,96.89
2022-08-22T08:18:08.678Z,98.53
2022-08-22T08:23:12.598Z,98.02
2022-08-22T08:28:18.301Z,96.32
2022-08-22T08:33:24.788Z,95.76
2022-08-22T08:38:31.535Z,95.16
2022-08-22T08:43:40.456Z,95.62
2022-08-22T08:48:45.819Z,93.75
2022-08-22T08:53:50.995Z,93.51
2022-08-22T08:59:02.421Z,90.41
2022-08-22T09:04:16.074Z,87.59
2022-08-22T09:09:20.284Z,85.75
2022-08-22T09:14:26.963Z,83.95
2022-08-22T09:19:32.518Z,81.04
2022-08-22T09:24:37.811Z,79.53
2022-08-22T09:29:55.164Z,80.66
2022-08-22T09:35:05.856Z,80.44
2022-08-22T09:40:17.479Z,77.95
2022-08-22T09:45:34.589Z,78.65
2022-08-22T09:50:41.254Z,79.76
2022-08-22T09:55:44.970Z,80.84
2022-08-22T10:00:55.495Z,81.84
2022-08-22T10:06:00.756Z,81.92
2022-08-22T10:11:09.642Z,81.88
2022-08-22T10:16:12.430Z,81.58
2022-08-22T10:21:18.587Z,79.81
2022-08-22T10:26:29.384Z,78.36
2022-08-22T10:31:34.906Z,76.71
2022-08-22T10:36:50.383Z,75.61
2022-08-22T10:41:54.622Z,75.58
2022-08-22T10:47:00.198Z,75.14
2022-08-22T10:52:15.234Z,75.06
2022-08-22T10:57:21.515Z,73.40
2022-08-22T11:02:35.214Z,73.39
2022-08-22T11:07:44.580Z,71.94
2022-08-22T11:12:54.129Z,70.25
2022-08-22T11:17:57.953Z,68.42
2022-08-22T11:23:13.238Z,68.44
2022-08-22T11:28:25.250Z,68.66
2022-08-22T11:33:46.341Z,67.17
2022-08-22T11:38:52.741Z,64.71
2022-08-22T11:43:58.381Z,62.69
2022-08-22T11:49:09.110Z,62.64
2022-08-22T11:54:19.640Z,62.49
2022-08-22T11:59:40.981Z,63.49
2022-08-22T12:04:50.985Z,63.22
2022-08-22T12:09:59.199Z,61.55
2022-08-22T12:15:04.665Z,61.49
2022-08-22T12:20:16.259Z,62.62
2022-08-22T12:25:20.264Z,62.49
2022-08-22T12:30:31.196Z,60.03
2022-08-22T12:35:36.508Z,60.06
2022-08-22T12:40:44.721Z,58.75
2022-08-22T12:45:59.824Z,59.55
2022-08-22T12:51:17.445Z,62.04
2022-08-22T12:56:23.133Z,60.98
2022-08-22T13:01:34.222Z,60.65
2022-08-22T13:06:37.009Z,59.41
2022-08-22T13:11:41.344Z,57.96
2022-08-22T13:16:48.868Z,56.37
2022-08-22T13:21:59.067Z,55.65
2022-08-22T13:27:05.760Z,55.66
2022-08-22T13:32:11.184Z,54.65
2022-08-22T13:37:24.347Z,52.92
2022-08-22T13:42:30.933Z,53.17
2022-08-22T13:47:35.781Z,52.31
2022-08-22T13:52:52.270Z,51.25
2022-08-22T13:58:00.468Z,51.32
2022-08-22T14:03:08.083Z,50.27
2022-08-22T14:08:18.434Z,49.99
2022-08-22T14:13:30.773Z,51.51
2022-08-22T14:18:46.199Z,53.64
2022-08-22T14:23:52.177Z,53.55
2022-08-22T14:28:57.185Z,55.62
2022-08-22T14:34:02.289Z,56.92
2022-08-22T14:39:24.631Z,58.41
2022-08-22T14:44:29.923Z,59.50
2022-08-22T14:49:48.181Z,60.26
2022-08-22T14:55:06.225Z,61.46
2022-08-22T15:00:12.499Z,62.50
2022-08-22T15:05:18.050Z,63.08
2022-08-22T15:10:23.001Z,63.71
2022-08-22T15:15:28.562Z,64.14
2022-08-22T15:20:36.278Z,62.92
2022-08-22T15:25:42.676Z,59.47
2022-08-22T15:31:09.315Z,53.83
2022-08-22T15:36:15.795Z,50.40
2022-08-22T15:41:22.091Z,49.25
2022-08-22T15:46:29.637Z,48.86
2022-08-22T15:51:36.422Z,48.55
2022-08-22T15:56:42.913Z,47.26
2022-08-22T16:01:50.897Z,47.04
2022-08-22T16:06:58.059Z,45.44
2022-08-22T16:12:02.024Z,46.41
2022-08-22T16:17:04.316Z,45.59
2022-08-22T16:22:07.831Z,47.23
2022-08-22T16:27:13.130Z,50.05
2022-08-22T16:32:23.018Z,52.67
2022-08-22T16:37:25.297Z,55.30
2022-08-22T16:42:34.787Z,57.42
2022-08-22T16:47:52.804Z,59.13
2022-08-22T16:53:05.343Z,61.06
2022-08-22T16:58:10.665Z,62.14
2022-08-22T17:03:13.969Z,63.56
2022-08-22T17:08:25.503Z,64.73
2022-08-22T17:13:32.771Z,65.61
2022-08-22T17:18:44.898Z,66.55
2022-08-22T17:23:50.144Z,67.45
2022-08-22T17:28:55.439Z,68.21
2022-08-22T17:34:01.546Z,68.88
2022-08-22T17:39:06.813Z,69.75
2022-08-22T17:44:12.026Z,70.48
2022-08-22T17:49:19.546Z,71.04
2022-08-22T17:54:29.827Z,71.85
2022-08-22T17:59:39.728Z,72.46
2022-08-22T18:04:45.618Z,72.83
2022-08-22T18:09:53.675Z,73.26
2022-08-22T18:14:59.664Z,74.04
2022-08-22T18:20:06.213Z,73.81
2022-08-22T18:25:11.542Z,74.04
2022-08-22T18:30:17.198Z,74.35
2022-08-22T18:35:24.990Z,74.44
2022-08-22T18:40:27.275Z,74.72
2022-08-22T18:45:44.117Z,75.32
2022-08-22T18:50:47.543Z,75.99
2022-08-22T18:55:55.968Z,76.28
2022-08-22T19:01:01.267Z,76.45
2022-08-22T19:06:03.588Z,76.93
2022-08-22T19:11:15.043Z,76.87
2022-08-22T19:16:17.370Z,77.34
2022-08-22T19:21:25.442Z,77.84
2022-08-22T19:26:30.744Z,77.99
2022-08-22T19:31:35.066Z,78.36
2022-08-22T19:36:37.965Z,78.86
2022-08-22T19:41:43.948Z,79.13
2022-08-22T19:46:58.651Z,79.86
2022-08-22T19:52:11.752Z,80.54
2022-08-22T19:57:34.272Z,80.45
2022-08-22T20:02:51.346Z,81.06
2022-08-22T20:07:56.588Z,81.12
2022-08-22T20:13:00.822Z,81.76
2022-08-22T20:23:29.393Z,82.27
2022-08-22T20:28:35.553Z,82.60
2022-08-22T20:33:39.775Z,82.64
2022-08-22T20:38:55.733Z,83.09
2022-08-22T20:44:18.818Z,83.21
2022-08-22T20:49:23.577Z,83.27
2022-08-22T20:54:28.469Z,83.18
2022-08-22T20:59:30.815Z,83.28
2022-08-22T21:04:42.480Z,83.40
2022-08-22T21:09:56.006Z,83.57
2022-08-22T21:14:58.326Z,83.79
2022-08-22T21:20:03.771Z,83.84
2022-08-22T21:25:06.226Z,83.74
2022-08-22T21:30:09.175Z,83.61
2022-08-22T21:35:31.551Z,83.62
2022-08-22T21:40:35.702Z,83.55
2022-08-22T21:45:38.041Z,83.97
2022-08-22T21:50:41.214Z,84.05
2022-08-22T21:55:44.495Z,84.24
2022-08-22T22:01:07.175Z,84.43
2022-08-22T22:06:12.937Z,84.89
2022-08-22T22:11:15.427Z,84.96
2022-08-22T22:16:22.516Z,85.14
2022-08-22T22:21:24.857Z,85.51
2022-08-22T22:26:28.489Z,85.85
2022-08-22T22:31:31.523Z,86.18
2022-08-22T22:36:55.225Z,86.31
2022-08-22T22:41:57.552Z,86.57
2022-08-22T22:47:02.108Z,87.25
2022-08-22T22:52:04.914Z,86.96
2022-08-22T22:57:07.210Z,87.26
2022-08-22T23:02:16.995Z,87.50
2022-08-22T23:07:20.063Z,87.57
2022-08-22T23:12:23.449Z,87.89
2022-08-22T23:17:25.871Z,88.10
2022-08-22T23:22:30.029Z,88.58
2022-08-22T23:27:32.402Z,88.73
2022-08-22T23:32:36.647Z,89.23
2022-08-22T23:37:39.005Z,89.51
2022-08-22T23:42:41.712Z,89.61
2022-08-22T23:47:44.018Z,89.77
2022-08-22T23:52:46.627Z,90.17
2022-08-22T23:57:48.943Z,90.04
